Date,TemperatureHighF,TemperatureAvgF,TemperatureLowF,DewpointHighF,DewpointAvgF,DewpointLowF,HumidityHigh,HumidityAvg,HumidityLow,PressureMaxIn,PressureMinIn,WindSpeedMaxMPH,WindSpeedAvgMPH,GustSpeedMaxMPH,PrecipitationSumIn
2013-9-1,97.9,78.1,68.4,83.0,74.8,67.8,98,91,61,29.82,29.70,5,1,0,0.27
2013-9-2,94.8,79.4,70.3,81.4,75.0,69.7,98,88,60,29.81,29.71,2,0,0,0.00
2013-9-3,99.1,77.5,66.2,79.1,72.0,65.6,98,86,52,29.88,29.73,5,1,0,0.47
2013-9-4,96.4,77.7,64.6,77.5,70.6,64.0,98,82,51,30.00,29.86,5,1,0,0.00
2013-9-5,101.3,78.8,64.0,79.1,71.3,63.4,98,82,42,30.02,29.94,4,0,0,0.19
2013-9-6,91.8,73.8,61.3,71.4,66.7,60.7,98,82,48,30.07,29.96,8,1,0,0.00
2013-9-7,96.6,74.1,60.8,74.9,67.4,60.2,98,83,48,30.03,29.88,5,0,0,0.00
2013-9-8,102.0,76.1,59.7,79.0,69.3,59.1,98,83,44,29.90,29.83,5,0,0,0.00
2013-9-9,95.2,76.7,63.3,77.6,70.4,62.7,98,83,54,30.04,29.90,5,1,0,0.00
2013-9-10,97.2,77.3,64.4,78.9,70.6,63.8,98,83,49,30.14,30.03,7,1,0,0.00
2013-9-11,99.7,77.5,61.9,80.0,70.1,61.3,98,82,47,30.13,29.99,6,0,0,0.00
2013-9-12,99.3,76.4,65.3,80.1,71.2,64.7,98,86,47,30.00,29.76,4,0,0,0.00
2013-9-13,99.7,76.7,59.5,76.5,66.8,58.9,98,77,36,29.77,29.66,4,0,0,0.00
2013-9-14,85.5,66.5,52.2,64.5,58.7,51.7,98,80,48,29.97,29.78,9,1,0,0.00
2013-9-15,88.9,70.1,56.8,72.7,64.7,56.2,98,85,57,30.10,29.98,4,1,0,0.00
2013-9-16,97.9,75.1,60.1,76.6,68.3,59.5,98,82,44,30.04,29.93,4,0,0,0.00
2013-9-17,74.7,69.2,64.0,66.6,62.6,60.2,95,80,67,30.19,30.03,11,2,0,0.00
2013-9-18,81.3,69.1,59.5,66.3,62.6,57.5,98,81,59,30.18,30.05,7,1,0,0.00
2013-9-19,94.3,73.3,56.5,72.8,66.2,55.9,98,82,50,30.08,29.96,4,1,0,0.00
2013-9-20,98.2,74.9,59.9,75.5,67.7,59.3,98,82,46,29.99,29.81,5,1,0,0.00
2013-9-21,74.3,67.3,61.9,73.4,66.7,61.3,98,98,96,29.83,29.53,5,1,0,1.27
2013-9-22,86.0,66.6,56.3,70.9,62.7,55.7,98,89,55,29.74,29.62,5,1,0,0.00